createdAt,value
2022-12-16T00:01:08.710Z,25.53
2022-12-16T00:03:35.902Z,24.50
2022-12-16T00:06:04.549Z,26.37
2022-12-16T00:08:34.792Z,25.73
2022-12-16T00:11:01.686Z,23.63
2022-12-16T00:13:29.748Z,25.03
2022-12-16T00:15:56.441Z,25.93
2022-12-16T00:18:22.865Z,25.27
2022-12-16T00:20:51.233Z,26.77
2022-12-16T00:23:18.102Z,27.50
2022-12-16T00:25:45.499Z,26.03
2022-12-16T00:28:12.569Z,27.43
2022-12-16T00:30:39.260Z,26.17
2022-12-16T00:33:05.779Z,26.67
2022-12-16T00:35:32.391Z,23.93
2022-12-16T00:37:58.816Z,24.47
2022-12-16T00:40:25.446Z,24.97
2022-12-16T00:42:52.182Z,28.40
2022-12-16T00:45:18.742Z,28.70
2022-12-16T00:47:45.128Z,26.80
2022-12-16T00:50:11.608Z,24.73
2022-12-16T00:52:38.334Z,27.60
2022-12-16T00:55:04.921Z,27.10
2022-12-16T00:57:31.328Z,25.73
2022-12-16T00:59:57.675Z,25.93
2022-12-16T01:02:24.201Z,26.53
2022-12-16T01:04:50.741Z,24.90
2022-12-16T01:07:17.122Z,25.57
2022-12-16T01:09:43.510Z,27.30
2022-12-16T01:12:09.876Z,24.17
2022-12-16T01:14:36.224Z,25.43
2022-12-16T01:17:02.708Z,25.20
2022-12-16T01:19:29.149Z,27.77
2022-12-16T01:21:55.518Z,24.97
2022-12-16T01:24:21.965Z,24.13
2022-12-16T01:26:48.393Z,27.73
2022-12-16T01:29:14.950Z,23.00
2022-12-16T01:31:41.506Z,24.20
2022-12-16T01:34:09.165Z,24.50
2022-12-16T01:36:35.584Z,23.47
2022-12-16T01:39:01.966Z,22.37
2022-12-16T01:41:28.319Z,24.73
2022-12-16T01:44:12.548Z,22.10
2022-12-16T01:46:39.108Z,22.60
2022-12-16T01:49:12.404Z,21.17
2022-12-16T01:51:47.509Z,20.63
2022-12-16T01:54:25.676Z,23.27
2022-12-16T01:56:54.967Z,21.63
2022-12-16T01:59:22.965Z,21.47
2022-12-16T02:01:49.492Z,21.80
2022-12-16T02:04:15.938Z,21.30
2022-12-16T02:06:42.303Z,25.17
2022-12-16T02:09:11.282Z,23.13
2022-12-16T02:11:40.663Z,21.87
2022-12-16T02:14:06.997Z,22.77
2022-12-16T02:16:42.922Z,24.43
2022-12-16T02:19:15.408Z,21.57
2022-12-16T02:21:48.964Z,23.63
2022-12-16T02:24:27.405Z,24.93
2022-12-16T02:27:00.034Z,22.43
2022-12-16T02:29:32.603Z,21.50
2022-12-16T02:32:02.517Z,22.27
2022-12-16T02:34:32.030Z,23.90
2022-12-16T02:37:18.491Z,24.10
2022-12-16T02:39:48.592Z,24.87
2022-12-16T02:42:19.266Z,25.67
2022-12-16T02:44:53.022Z,24.10
2022-12-16T02:47:19.419Z,21.97
2022-12-16T02:49:47.595Z,22.60
2022-12-16T02:52:14.758Z,22.10
2022-12-16T02:54:41.282Z,24.27
2022-12-16T02:57:26.644Z,23.13
2022-12-16T03:00:02.255Z,22.30
2022-12-16T03:02:30.525Z,24.53
2022-12-16T03:05:04.192Z,23.30
2022-12-16T03:07:37.257Z,24.87
2022-12-16T03:10:08.100Z,27.57
2022-12-16T03:12:35.778Z,22.27
2022-12-16T03:15:02.685Z,24.63
2022-12-16T03:17:29.228Z,22.10
2022-12-16T03:20:05.426Z,24.63
2022-12-16T03:22:34.279Z,24.20
2022-12-16T03:25:00.690Z,26.20
2022-12-16T03:27:31.215Z,24.63
2022-12-16T03:30:06.797Z,26.33
2022-12-16T03:32:39.191Z,24.57
2022-12-16T03:35:19.710Z,24.77
2022-12-16T03:37:48.062Z,24.10
2022-12-16T03:40:15.025Z,23.87
2022-12-16T03:42:42.385Z,26.37
2022-12-16T03:45:11.426Z,26.17
2022-12-16T03:47:37.865Z,23.17
2022-12-16T03:50:04.364Z,24.97
2022-12-16T03:52:30.781Z,25.17
2022-12-16T03:54:57.116Z,26.97
2022-12-16T03:57:23.799Z,24.87
2022-12-16T03:59:50.218Z,22.40
2022-12-16T04:02:16.718Z,27.60
2022-12-16T04:04:43.255Z,24.17
2022-12-16T04:07:21.499Z,25.20
2022-12-16T04:09:48.659Z,24.33
2022-12-16T04:12:33.578Z,28.17
2022-12-16T04:15:18.475Z,24.70
2022-12-16T04:18:03.279Z,26.27
2022-12-16T04:20:50.142Z,22.77
2022-12-16T04:23:36.082Z,26.47
2022-12-16T04:26:02.893Z,26.97
2022-12-16T04:28:29.508Z,27.10
2022-12-16T04:30:56.319Z,26.90
2022-12-16T04:33:41.706Z,26.60
2022-12-16T04:36:26.587Z,28.53
2022-12-16T04:39:11.631Z,28.63
2022-12-16T04:41:56.697Z,27.13
2022-12-16T04:44:41.660Z,26.23
2022-12-16T04:47:26.838Z,30.07
2022-12-16T04:50:11.751Z,28.17
2022-12-16T04:52:56.677Z,27.80
2022-12-16T04:55:41.674Z,29.37
2022-12-16T04:58:26.605Z,27.07
2022-12-16T05:01:11.436Z,24.33
2022-12-16T05:03:56.478Z,26.50
2022-12-16T05:06:41.581Z,23.27
2022-12-16T05:09:26.482Z,24.03
2022-12-16T05:12:11.421Z,23.33
2022-12-16T05:14:56.537Z,26.30
2022-12-16T05:17:41.624Z,27.43
2022-12-16T05:20:26.546Z,26.90
2022-12-16T05:23:14.133Z,26.10
2022-12-16T05:25:59.222Z,26.37
2022-12-16T05:28:44.215Z,24.17
2022-12-16T05:31:29.553Z,25.63
2022-12-16T05:34:14.715Z,25.17
2022-12-16T05:36:59.962Z,25.03
2022-12-16T05:39:44.831Z,25.50
2022-12-16T05:42:29.979Z,25.00
2022-12-16T05:45:14.826Z,27.70
2022-12-16T05:47:59.673Z,28.73
2022-12-16T05:50:49.037Z,28.10
2022-12-16T05:53:34.426Z,25.73
2022-12-16T05:56:19.795Z,29.87
2022-12-16T05:59:04.447Z,27.77
2022-12-16T06:01:49.496Z,27.53
2022-12-16T06:04:34.620Z,29.87
2022-12-16T06:07:19.783Z,28.70
2022-12-16T06:10:04.628Z,30.83
2022-12-16T06:12:49.978Z,32.43
2022-12-16T06:15:35.427Z,29.33
2022-12-16T06:18:20.281Z,31.30
2022-12-16T06:21:05.120Z,36.60
2022-12-16T06:23:50.163Z,32.57
2022-12-16T06:26:35.263Z,29.67
2022-12-16T06:29:20.530Z,34.23
2022-12-16T06:32:05.446Z,35.00
2022-12-16T06:34:50.739Z,34.70
2022-12-16T06:37:35.752Z,34.77
2022-12-16T06:40:20.656Z,32.83
2022-12-16T06:43:05.501Z,36.73
2022-12-16T06:45:50.610Z,37.17
2022-12-16T06:48:35.899Z,41.00
2022-12-16T06:51:21.082Z,35.57
2022-12-16T06:54:06.069Z,44.50
2022-12-16T06:56:52.743Z,34.53
2022-12-16T06:59:37.656Z,38.73
2022-12-16T07:02:22.641Z,32.60
2022-12-16T07:05:07.822Z,32.53
2022-12-16T07:07:52.778Z,33.33
2022-12-16T07:10:37.854Z,35.50
2022-12-16T07:13:22.737Z,31.83
2022-12-16T07:16:07.929Z,30.13
2022-12-16T07:18:53.054Z,32.00
2022-12-16T07:21:37.769Z,32.03
2022-12-16T07:24:22.764Z,28.87
2022-12-16T07:27:07.503Z,33.13
2022-12-16T07:29:52.351Z,32.27
2022-12-16T07:32:37.547Z,36.63
2022-12-16T07:35:22.659Z,47.87
2022-12-16T07:38:07.781Z,33.63
2022-12-16T07:40:52.632Z,30.50
2022-12-16T07:43:37.601Z,33.27
2022-12-16T07:46:22.713Z,33.33
2022-12-16T07:49:07.871Z,31.47
2022-12-16T07:51:52.843Z,30.57
2022-12-16T07:54:37.682Z,29.20
2022-12-16T07:57:22.729Z,30.80
2022-12-16T08:00:07.655Z,35.43
2022-12-16T08:02:53.752Z,32.60
2022-12-16T08:05:40.838Z,32.03
2022-12-16T08:08:25.839Z,33.90
2022-12-16T08:11:10.900Z,32.53
2022-12-16T08:13:55.774Z,32.00
2022-12-16T08:16:40.744Z,33.37
2022-12-16T08:19:25.822Z,30.97
2022-12-16T08:22:10.757Z,29.07
2022-12-16T08:24:56.130Z,31.07
2022-12-16T08:27:41.367Z,31.57
2022-12-16T08:30:27.023Z,29.37
2022-12-16T08:33:18.820Z,32.87
2022-12-16T08:36:04.879Z,29.20
2022-12-16T08:38:50.274Z,28.27
2022-12-16T08:41:36.213Z,30.83
2022-12-16T08:44:20.953Z,34.43
2022-12-16T08:47:06.484Z,33.47
2022-12-16T08:49:52.621Z,33.77
2022-12-16T08:52:39.831Z,36.40
2022-12-16T08:55:29.469Z,35.67
2022-12-16T08:58:14.876Z,33.27
2022-12-16T09:01:06.325Z,34.50
2022-12-16T09:03:54.021Z,32.70
2022-12-16T09:06:41.012Z,32.53
2022-12-16T09:09:26.496Z,33.40
2022-12-16T09:12:11.586Z,34.40
2022-12-16T09:14:56.709Z,33.20
2022-12-16T09:17:41.975Z,33.53
2022-12-16T09:20:27.311Z,33.47
2022-12-16T09:23:12.267Z,32.03
2022-12-16T09:25:57.520Z,31.60
2022-12-16T09:28:42.649Z,30.70
2022-12-16T09:31:27.503Z,33.77
2022-12-16T09:34:12.555Z,32.93
2022-12-16T09:36:57.573Z,30.63
2022-12-16T09:39:42.372Z,33.83
2022-12-16T09:42:46.010Z,35.17
2022-12-16T09:45:45.816Z,36.07
2022-12-16T09:48:33.671Z,36.03
2022-12-16T09:51:22.558Z,33.47
2022-12-16T09:54:08.917Z,37.03
2022-12-16T09:56:55.467Z,36.10
2022-12-16T09:59:49.069Z,33.50
2022-12-16T10:02:35.998Z,36.10
2022-12-16T10:05:21.683Z,44.87
2022-12-16T10:08:20.573Z,38.53
2022-12-16T10:11:15.735Z,39.37
2022-12-16T10:14:17.686Z,40.73
2022-12-16T10:17:04.523Z,41.43
2022-12-16T10:19:49.523Z,39.53
2022-12-16T10:22:34.312Z,39.63
2022-12-16T10:25:25.442Z,37.80
2022-12-16T10:28:15.162Z,40.30
2022-12-16T10:31:00.246Z,47.23
2022-12-16T10:33:47.636Z,46.83
2022-12-16T10:36:43.185Z,40.40
2022-12-16T10:39:54.679Z,43.83
2022-12-16T10:43:01.866Z,44.97
2022-12-16T10:45:47.730Z,44.13
2022-12-16T10:48:35.467Z,45.20
2022-12-16T10:51:20.960Z,46.33
2022-12-16T10:54:08.724Z,40.30
2022-12-16T10:57:11.612Z,45.80
2022-12-16T10:59:57.801Z,51.97
2022-12-16T11:02:43.998Z,43.30
2022-12-16T11:05:44.463Z,42.73
2022-12-16T11:08:41.834Z,40.83
2022-12-16T11:11:38.272Z,41.20
2022-12-16T11:14:34.616Z,41.83
2022-12-16T11:17:30.286Z,43.33
2022-12-16T11:20:30.570Z,45.17
2022-12-16T11:23:27.933Z,43.60
2022-12-16T11:26:30.433Z,44.30
2022-12-16T11:29:21.551Z,54.93
2022-12-16T11:32:08.528Z,57.67
2022-12-16T11:34:54.586Z,49.93
2022-12-16T11:37:40.053Z,47.27
2022-12-16T11:40:31.105Z,47.50
2022-12-16T11:43:17.211Z,46.43
2022-12-16T11:46:02.300Z,43.30
2022-12-16T11:48:56.883Z,47.30
2022-12-16T11:51:43.152Z,42.47
2022-12-16T11:54:48.246Z,46.43
2022-12-16T11:57:59.760Z,45.40
2022-12-16T12:00:44.973Z,47.07
2022-12-16T12:03:34.166Z,44.50
2022-12-16T12:06:37.628Z,44.53
2022-12-16T12:09:26.624Z,48.17
2022-12-16T12:12:26.958Z,41.17
2022-12-16T12:15:16.351Z,42.07
2022-12-16T12:18:04.646Z,43.80
2022-12-16T12:21:05.983Z,75.73
2022-12-16T12:24:08.166Z,75.97
2022-12-16T12:26:56.317Z,52.13
2022-12-16T12:30:00.568Z,44.53
2022-12-16T12:32:48.505Z,44.07
2022-12-16T12:35:58.671Z,48.77
2022-12-16T12:39:00.655Z,48.03
2022-12-16T12:42:08.238Z,51.07
2022-12-16T12:45:07.296Z,51.67
2022-12-16T12:47:54.428Z,48.13
2022-12-16T12:50:42.402Z,48.27
2022-12-16T12:53:39.874Z,54.83
2022-12-16T12:56:33.824Z,50.23
2022-12-16T12:59:23.375Z,53.43
2022-12-16T13:02:09.981Z,56.87
2022-12-16T13:04:55.771Z,62.53
2022-12-16T13:07:41.363Z,62.93
2022-12-16T13:10:49.223Z,55.60
2022-12-16T13:13:34.941Z,55.90
2022-12-16T13:16:21.326Z,63.23
2022-12-16T13:19:09.472Z,58.33
2022-12-16T13:21:56.158Z,60.93
2022-12-16T13:24:41.648Z,58.23
2022-12-16T13:27:33.269Z,53.97
2022-12-16T13:30:36.576Z,59.07
2022-12-16T13:33:23.814Z,56.77
2022-12-16T13:36:16.195Z,55.03
2022-12-16T13:39:05.560Z,58.37
2022-12-16T13:41:50.920Z,55.40
2022-12-16T13:45:14.910Z,55.20
2022-12-16T13:47:59.952Z,51.13
2022-12-16T13:51:04.011Z,45.47
2022-12-16T13:54:00.900Z,54.07
2022-12-16T13:57:06.368Z,65.93
2022-12-16T13:59:51.703Z,66.57
2022-12-16T14:02:39.732Z,57.37
2022-12-16T14:05:37.258Z,46.57
2022-12-16T14:08:24.095Z,45.13
2022-12-16T14:11:15.219Z,47.60
2022-12-16T14:14:15.673Z,52.43
2022-12-16T14:17:16.586Z,61.67
2022-12-16T14:20:04.843Z,68.40
2022-12-16T14:23:02.202Z,64.97
2022-12-16T14:25:48.093Z,56.73
2022-12-16T14:28:39.346Z,57.03
2022-12-16T14:31:30.566Z,53.53
2022-12-16T14:34:20.207Z,50.90
2022-12-16T14:37:05.542Z,61.47
2022-12-16T14:39:55.712Z,51.03
2022-12-16T14:43:11.298Z,50.00
2022-12-16T14:45:57.906Z,45.87
2022-12-16T14:48:50.380Z,41.80
2022-12-16T14:51:38.296Z,43.67
2022-12-16T14:54:41.664Z,46.60
2022-12-16T14:57:31.214Z,43.57
2022-12-16T15:00:20.469Z,49.17
2022-12-16T15:03:09.011Z,52.73
2022-12-16T15:05:55.144Z,68.70
2022-12-16T15:08:41.481Z,75.90
2022-12-16T15:11:28.634Z,71.10
2022-12-16T15:14:16.796Z,66.23
2022-12-16T15:17:02.570Z,64.57
2022-12-16T15:19:50.960Z,55.13
2022-12-16T15:22:36.501Z,57.47
2022-12-16T15:25:22.061Z,83.43
2022-12-16T15:28:15.127Z,67.83
2022-12-16T15:31:07.718Z,68.87
2022-12-16T15:33:54.657Z,61.87
2022-12-16T15:36:46.302Z,61.67
2022-12-16T15:39:37.262Z,58.00
2022-12-16T15:42:23.804Z,58.03
2022-12-16T15:45:23.989Z,52.80
2022-12-16T15:48:09.591Z,53.83
2022-12-16T15:51:13.977Z,46.00
2022-12-16T15:53:59.089Z,56.03
2022-12-16T15:56:46.117Z,54.17
2022-12-16T15:59:31.740Z,63.43
2022-12-16T16:02:16.858Z,68.33
2022-12-16T16:05:01.951Z,70.67
2022-12-16T16:07:47.254Z,71.13
2022-12-16T16:10:40.141Z,127.37
2022-12-16T16:13:25.211Z,107.43
2022-12-16T16:16:11.107Z,110.93
2022-12-16T16:18:56.472Z,83.67
2022-12-16T16:21:41.705Z,86.70
2022-12-16T16:24:28.385Z,76.93
2022-12-16T16:27:16.300Z,100.47
2022-12-16T16:30:10.362Z,97.17
2022-12-16T16:32:55.653Z,83.50
2022-12-16T16:35:41.269Z,85.73
2022-12-16T16:38:28.610Z,88.60
2022-12-16T16:41:14.039Z,80.07
2022-12-16T16:43:58.955Z,79.20
2022-12-16T16:46:44.340Z,68.23
2022-12-16T16:49:30.494Z,66.03
2022-12-16T16:52:15.955Z,70.13
2022-12-16T16:55:01.192Z,80.83
2022-12-16T16:57:51.139Z,72.23
2022-12-16T17:00:36.578Z,69.00
2022-12-16T17:03:22.003Z,66.23
2022-12-16T17:06:07.082Z,55.07
2022-12-16T17:08:52.120Z,51.57
2022-12-16T17:11:38.497Z,51.43
2022-12-16T17:14:24.212Z,52.47
2022-12-16T17:17:11.470Z,57.90
2022-12-16T17:19:59.787Z,49.47
2022-12-16T17:22:46.461Z,66.83
2022-12-16T17:25:32.278Z,68.87
2022-12-16T17:28:17.747Z,66.20
2022-12-16T17:31:03.143Z,65.27
2022-12-16T17:33:48.314Z,63.30
2022-12-16T17:36:34.962Z,67.03
2022-12-16T17:39:20.386Z,68.40
2022-12-16T17:42:05.496Z,65.90
2022-12-16T17:45:07.882Z,63.67
2022-12-16T17:47:53.193Z,62.57
2022-12-16T17:50:38.535Z,78.30
2022-12-16T17:53:23.585Z,77.77
2022-12-16T17:56:08.937Z,96.47
2022-12-16T17:58:58.115Z,84.43
2022-12-16T18:01:43.307Z,82.60
2022-12-16T18:04:28.700Z,83.57
2022-12-16T18:07:13.957Z,84.50
2022-12-16T18:09:59.191Z,91.67
2022-12-16T18:12:44.546Z,95.23
2022-12-16T18:15:29.540Z,93.33
2022-12-16T18:18:14.837Z,74.83
2022-12-16T18:21:00.199Z,74.53
2022-12-16T18:23:47.701Z,60.23
2022-12-16T18:26:33.362Z,48.87
2022-12-16T18:29:18.320Z,44.23
2022-12-16T18:32:03.365Z,42.53
2022-12-16T18:34:48.672Z,47.43
2022-12-16T18:37:33.804Z,43.83
2022-12-16T18:40:18.706Z,39.47
2022-12-16T18:43:03.880Z,40.07
2022-12-16T18:45:49.198Z,50.27
2022-12-16T18:48:34.851Z,43.50
2022-12-16T18:51:20.290Z,75.93
2022-12-16T18:54:05.798Z,78.60
2022-12-16T18:56:50.873Z,109.37
2022-12-16T18:59:36.109Z,99.00
2022-12-16T19:02:21.029Z,95.37
2022-12-16T19:05:06.503Z,105.17
2022-12-16T19:07:52.030Z,112.03
2022-12-16T19:10:37.198Z,120.87
2022-12-16T19:13:22.160Z,112.90
2022-12-16T19:16:14.222Z,115.63
2022-12-16T19:18:59.858Z,107.73
2022-12-16T19:21:51.364Z,105.80
2022-12-16T19:24:37.266Z,105.47
2022-12-16T19:27:22.702Z,96.40
2022-12-16T19:30:07.774Z,84.53
2022-12-16T19:32:53.240Z,80.43
2022-12-16T19:35:38.558Z,74.27
2022-12-16T19:38:23.771Z,82.57
2022-12-16T19:41:12.893Z,101.23
2022-12-16T19:44:05.204Z,102.73
2022-12-16T19:46:51.662Z,116.77
2022-12-16T19:49:42.344Z,112.47
2022-12-16T19:52:29.258Z,133.80
2022-12-16T19:55:17.773Z,126.30
2022-12-16T19:58:03.347Z,134.20
2022-12-16T20:00:48.766Z,143.53
2022-12-16T20:03:52.349Z,130.67
2022-12-16T20:06:41.779Z,134.17
2022-12-16T20:09:28.804Z,133.97
2022-12-16T20:12:13.952Z,129.40
2022-12-16T20:14:59.154Z,126.73
2022-12-16T20:17:44.419Z,128.63
2022-12-16T20:20:29.538Z,123.87
2022-12-16T20:23:14.688Z,121.30
2022-12-16T20:25:59.982Z,113.17
2022-12-16T20:28:45.172Z,102.27
2022-12-16T20:31:30.586Z,103.33
2022-12-16T20:34:16.069Z,95.93
2022-12-16T20:37:01.415Z,102.47
2022-12-16T20:39:56.456Z,102.60
2022-12-16T20:42:42.832Z,103.10
2022-12-16T20:45:28.549Z,102.97
2022-12-16T20:48:16.826Z,93.90
2022-12-16T20:51:02.571Z,84.90
2022-12-16T20:53:48.025Z,77.10
2022-12-16T20:56:33.135Z,77.60
2022-12-16T20:59:18.106Z,80.90
2022-12-16T21:02:29.075Z,78.00
2022-12-16T21:05:08.484Z,86.27
2022-12-16T21:07:54.869Z,93.80
2022-12-16T21:10:42.249Z,91.50
2022-12-16T21:13:31.600Z,89.30
2022-12-16T21:16:17.385Z,88.43
2022-12-16T21:19:02.938Z,112.27
2022-12-16T21:21:48.432Z,88.23
2022-12-16T21:24:34.003Z,76.40
2022-12-16T21:27:19.060Z,68.47
2022-12-16T21:30:04.403Z,109.47
2022-12-16T21:32:49.249Z,112.83
2022-12-16T21:35:34.352Z,106.53
2022-12-16T21:38:19.453Z,70.80
2022-12-16T21:41:10.913Z,52.60
2022-12-16T21:43:56.405Z,52.70
2022-12-16T21:46:41.942Z,52.73
2022-12-16T21:49:26.971Z,57.90
2022-12-16T21:52:12.536Z,49.13
2022-12-16T21:54:57.398Z,48.57
2022-12-16T21:57:42.557Z,48.20
2022-12-16T22:00:28.215Z,50.03
2022-12-16T22:03:16.875Z,51.40
2022-12-16T22:06:18.834Z,48.90
2022-12-16T22:09:03.721Z,51.23
2022-12-16T22:11:49.029Z,51.33
2022-12-16T22:14:33.934Z,48.47
2022-12-16T22:17:19.233Z,53.37
2022-12-16T22:20:04.831Z,85.70
2022-12-16T22:22:52.713Z,76.27
2022-12-16T22:25:37.791Z,96.43
2022-12-16T22:28:24.771Z,72.17
2022-12-16T22:31:15.763Z,114.57
2022-12-16T22:34:01.415Z,83.60
2022-12-16T22:36:46.821Z,71.43
2022-12-16T22:39:31.433Z,75.70
2022-12-16T22:42:16.636Z,80.47
2022-12-16T22:45:01.973Z,85.57
2022-12-16T22:47:47.316Z,81.73
2022-12-16T22:50:32.338Z,102.10
2022-12-16T22:53:17.492Z,103.03
2022-12-16T22:56:08.474Z,105.40
2022-12-16T22:58:56.223Z,111.67
2022-12-16T23:01:41.501Z,118.43
2022-12-16T23:04:26.752Z,113.97
2022-12-16T23:07:12.100Z,109.07
2022-12-16T23:12:59.349Z,105.00
2022-12-16T23:15:44.548Z,105.10
2022-12-16T23:18:29.887Z,113.73
2022-12-16T23:21:14.886Z,111.43
2022-12-16T23:24:00.089Z,121.87
2022-12-16T23:26:58.946Z,124.47
2022-12-16T23:29:43.713Z,122.17
2022-12-16T23:32:31.569Z,125.53
2022-12-16T23:35:16.873Z,126.03
2022-12-16T23:38:03.769Z,123.73
2022-12-16T23:40:48.889Z,122.00
2022-12-16T23:43:33.963Z,126.40
2022-12-16T23:46:19.250Z,119.90
2022-12-16T23:49:05.440Z,110.07
2022-12-16T23:51:50.163Z,117.13
2022-12-16T23:54:35.363Z,121.47
2022-12-16T23:57:20.449Z,120.20
